This is the latest recevied weather packets stored in our database for station/object OE5RPP. If no packets are shown the sender has not sent any weather packets the latest 10 day(s).
| Time | Temp. | Humidity | Pressure | Rain* | Wind** | Luminosity | Snow |
|---|---|---|---|---|---|---|---|
| 1777183873 | 11.67° C | 21% | 1023.9 hPa | 0 mm | - | - | - |
| 1777183273 | 11.67° C | 21% | 1023.9 hPa | 0 mm | - | - | - |
| 1777182672 | 11.11° C | 21% | 1023.9 hPa | 0 mm | - | - | - |
| 1777182072 | 10.56° C | 21% | 1023.9 hPa | 0 mm | - | - | - |
| 1777181472 | 10.56° C | 22% | 1023.9 hPa | 0 mm | - | - | - |
| 1777180872 | 10.56° C | 22% | 1023.9 hPa | 0 mm | - | - | - |
| 1777180273 | 10° C | 22% | 1023.9 hPa | 0 mm | - | - | - |
| 1777179673 | 10° C | 22% | 1022.9 hPa | 0 mm | - | - | - |
| 1777179073 | 9.44° C | 22% | 1022.9 hPa | 0 mm | - | - | - |
| 1777178472 | 8.89° C | 22% | 1022.9 hPa | 0 mm | - | - | - |
| 1777177873 | 7.22° C | 26% | 1022.9 hPa | 0 mm | - | - | - |
| 1777177273 | 5.56° C | 25% | 1022.9 hPa | 0 mm | - | - | - |
| 1777176671 | 6.67° C | 23% | 1022.9 hPa | 0 mm | - | - | - |
| 1777176073 | 7.78° C | 26% | 1021.9 hPa | 0 mm | - | - | - |
| 1777175473 | 7.78° C | 26% | 1021.9 hPa | 0 mm | - | - | - |
| 1777174873 | 8.33° C | 26% | 1021.9 hPa | 0 mm | - | - | - |
| 1777174272 | 7.78° C | 26% | 1021.9 hPa | 0 mm | - | - | - |
| 1777173672 | 5° C | 46% | 1021.9 hPa | 0 mm | - | - | - |
| 1777173072 | 3.33° C | 41% | 1021.9 hPa | 0 mm | - | - | - |
| 1777172472 | 3.33° C | 41% | 1021.9 hPa | 0 mm | - | - | - |
| 1777171872 | 3.33° C | 40% | 1021.9 hPa | 0 mm | - | - | - |
| 1777171273 | 3.33° C | 40% | 1020.9 hPa | 0 mm | - | - | - |
| 1777170672 | 3.33° C | 40% | 1020.9 hPa | 0 mm | - | - | - |
| 1777170072 | 3.33° C | 40% | 1020.9 hPa | 0 mm | - | - | - |
| 1777169472 | 3.89° C | 40% | 1020.9 hPa | 0 mm | - | - | - |
* Rain latest hour (hover to see other rain measurements)
** Current wind speed in m/s (hover to see current wind gust speed)